Time;durP1;ratioP1;P1;durP2;ratioP2;P2;SDS_P1;SDS_P2;PMS_P1;PMS_P2;Temp;Humidity;BMP_temperature;BMP_pressure;BME280_temperature;BME280_humidity;BME280_pressure;Samples;Min_cycle;Max_cycle;Signal;HPM_P1;HPM_P2
2022/12/28 00:01:21;;;;;;;0.30;0.30;;;2.70;99.90;;;;;;5073950;28;20196;-70
2022/12/28 00:03:47;;;;;;;0.40;0.40;;;2.80;99.90;;;;;;5075359;28;20199;-68
2022/12/28 00:06:14;;;;;;;0.30;0.30;;;2.80;99.90;;;;;;5074764;28;20637;-70
2022/12/28 00:08:39;;;;;;;0.30;0.30;;;2.90;99.90;;;;;;5074828;28;20173;-70
2022/12/28 00:11:07;;;;;;;0.30;0.30;;;3.00;99.90;;;;;;5075436;28;20208;-71
2022/12/28 00:13:34;;;;;;;0.40;0.40;;;3.10;99.90;;;;;;5074900;28;20411;-70
2022/12/28 00:16:27;;;;;;;0.30;0.30;;;3.00;99.90;;;;;;5074739;28;20188;-69
2022/12/28 00:18:54;;;;;;;0.40;0.40;;;3.00;99.90;;;;;;5074260;28;20196;-70
2022/12/28 00:21:20;;;;;;;0.30;0.30;;;3.00;99.90;;;;;;5075238;28;20540;-70
2022/12/28 00:23:49;;;;;;;0.40;0.40;;;3.00;99.90;;;;;;5073349;28;20178;-68
2022/12/28 00:26:14;;;;;;;0.32;0.32;;;3.00;99.90;;;;;;5073729;28;20268;-70
2022/12/28 00:28:40;;;;;;;0.33;0.33;;;3.00;99.90;;;;;;5074824;28;20204;-70
2022/12/28 00:31:06;;;;;;;0.30;0.30;;;2.90;99.90;;;;;;5074834;28;20181;-70
2022/12/28 00:33:32;;;;;;;0.40;0.40;;;2.90;99.90;;;;;;5075077;28;20169;-69
2022/12/28 00:35:59;;;;;;;0.40;0.40;;;2.80;99.90;;;;;;5074104;28;20449;-70
2022/12/28 00:38:25;;;;;;;0.30;0.30;;;2.80;99.90;;;;;;5073054;28;20452;-69
2022/12/28 00:40:51;;;;;;;0.40;0.40;;;2.80;99.90;;;;;;5074793;28;20196;-70
2022/12/28 00:43:17;;;;;;;0.40;0.40;;;2.80;99.90;;;;;;5074505;28;20176;-69
2022/12/28 00:45:45;;;;;;;0.32;0.32;;;2.80;99.90;;;;;;5073937;28;20487;-69
2022/12/28 00:48:11;;;;;;;0.40;0.40;;;2.90;99.90;;;;;;5074057;28;20681;-69
2022/12/28 00:50:36;;;;;;;0.30;0.30;;;3.10;99.90;;;;;;5074104;28;20194;-69
2022/12/28 00:53:02;;;;;;;0.40;0.40;;;3.20;99.90;;;;;;5074268;28;20415;-70
2022/12/28 00:55:28;;;;;;;0.40;0.40;;;3.20;99.90;;;;;;5073871;28;20223;-69
2022/12/28 00:57:53;;;;;;;0.50;0.50;;;3.20;99.90;;;;;;5073867;28;20232;-70
2022/12/28 01:00:19;;;;;;;0.40;0.40;;;3.30;99.90;;;;;;5074334;28;20584;-69
2022/12/28 01:02:44;;;;;;;0.40;0.40;;;3.30;99.90;;;;;;5074502;28;20173;-69
2022/12/28 01:05:10;;;;;;;0.30;0.30;;;3.30;99.90;;;;;;5074031;28;20173;-69
2022/12/28 01:07:36;;;;;;;0.40;0.40;;;3.30;99.90;;;;;;5074052;28;20260;-69
2022/12/28 01:10:01;;;;;;;0.30;0.30;;;3.20;99.90;;;;;;5073818;28;20189;-69
2022/12/28 01:12:28;;;;;;;0.30;0.30;;;3.20;99.90;;;;;;5073794;28;20239;-69
2022/12/28 01:14:53;;;;;;;0.35;0.35;;;3.30;99.90;;;;;;5073559;28;20581;-70
2022/12/28 01:17:19;;;;;;;0.30;0.30;;;3.30;99.90;;;;;;5074233;28;20189;-70
2022/12/28 01:19:45;;;;;;;0.30;0.30;;;3.30;99.90;;;;;;5073938;28;20170;-70
2022/12/28 01:22:11;;;;;;;0.63;0.63;;;3.40;99.90;;;;;;5074011;28;20197;-69
2022/12/28 01:24:36;;;;;;;0.40;0.40;;;3.40;99.90;;;;;;5073497;28;20162;-70
2022/12/28 01:27:02;;;;;;;0.30;0.30;;;3.40;99.90;;;;;;5073803;28;20176;-69
2022/12/28 01:29:28;;;;;;;0.30;0.30;;;3.50;99.90;;;;;;5074110;28;20204;-70
2022/12/28 01:31:53;;;;;;;0.30;0.30;;;3.50;99.90;;;;;;5074099;28;20539;-69
2022/12/28 01:34:19;;;;;;;0.40;0.40;;;3.50;99.90;;;;;;5073463;28;20165;-69
2022/12/28 01:36:44;;;;;;;0.30;0.30;;;3.50;99.90;;;;;;5073164;28;20560;-70
2022/12/28 01:39:10;;;;;;;0.30;0.30;;;3.60;99.90;;;;;;5073460;28;20627;-69
2022/12/28 01:41:38;;;;;;;0.40;0.40;;;3.70;99.90;;;;;;5073342;28;20654;-70
2022/12/28 01:44:04;;;;;;;0.50;0.50;;;3.60;99.90;;;;;;5073748;28;20165;-70
2022/12/28 01:46:44;;;;;;;0.30;0.30;;;3.70;99.90;;;;;;5073985;28;20187;-69
2022/12/28 01:49:31;;;;;;;0.60;0.55;;;3.80;99.90;;;;;;5073660;28;20184;-70
2022/12/28 01:52:18;;;;;;;1.83;1.73;;;3.90;99.90;;;;;;5073681;28;20239;-71
2022/12/28 01:54:47;;;;;;;0.40;0.40;;;3.90;99.90;;;;;;5073597;28;20180;-70
2022/12/28 01:57:14;;;;;;;0.40;0.40;;;3.90;99.90;;;;;;5073803;28;20201;-70
2022/12/28 01:59:45;;;;;;;0.40;0.40;;;3.90;99.90;;;;;;5073496;28;20180;-70
2022/12/28 02:02:13;;;;;;;1.20;1.20;;;3.80;99.90;;;;;;5073735;28;20155;-70
2022/12/28 02:04:39;;;;;;;0.80;0.80;;;3.90;99.90;;;;;;5073281;28;20204;-69
2022/12/28 02:07:04;;;;;;;1.53;1.43;;;3.90;99.90;;;;;;5073716;28;20197;-70
2022/12/28 02:09:39;;;;;;;0.50;0.50;;;3.90;99.90;;;;;;5073760;28;20197;-70
2022/12/28 02:12:07;;;;;;;1.42;1.40;;;3.90;99.90;;;;;;5073536;28;20188;-71
2022/12/28 02:14:33;;;;;;;0.60;0.60;;;3.90;99.90;;;;;;5073015;28;20227;-70
2022/12/28 02:16:59;;;;;;;0.43;0.43;;;3.90;99.90;;;;;;5073363;28;20190;-69
2022/12/28 02:19:45;;;;;;;0.40;0.40;;;4.00;99.90;;;;;;5073578;28;20189;-70
2022/12/28 02:22:22;;;;;;;0.40;0.40;;;4.00;99.90;;;;;;5073004;28;20186;-69
2022/12/28 02:25:03;;;;;;;0.65;0.65;;;4.00;99.90;;;;;;5073050;28;20174;-70
2022/12/28 02:27:41;;;;;;;0.40;0.40;;;4.00;99.90;;;;;;5073382;28;20175;-70
2022/12/28 02:30:08;;;;;;;0.30;0.30;;;4.10;99.90;;;;;;5073170;28;20280;-70
2022/12/28 02:32:39;;;;;;;0.40;0.40;;;4.10;99.90;;;;;;5073229;28;20228;-70
2022/12/28 02:35:23;;;;;;;0.30;0.30;;;4.10;99.90;;;;;;5073034;28;20179;-70
2022/12/28 02:37:58;;;;;;;0.55;0.55;;;4.10;99.90;;;;;;5073150;28;20251;-71
2022/12/28 02:40:33;;;;;;;1.70;1.60;;;4.10;99.90;;;;;;5073059;28;20181;-70
2022/12/28 02:43:01;;;;;;;0.30;0.30;;;4.10;99.90;;;;;;5073329;28;20507;-70
2022/12/28 02:51:32;;;;;;;0.32;0.32;;;4.10;99.90;;;;;;5076607;28;20199;-69
2022/12/28 02:56:05;;;;;;;0.60;0.60;;;4.10;99.90;;;;;;5076276;28;20226;-69
2022/12/28 02:57:16;;;;;;;0.30;0.30;;;4.00;99.90;;;;;;5076200;28;20300;-70
2022/12/28 02:59:54;;;;;;;0.50;0.50;;;4.00;99.90;;;;;;5076791;28;20552;-70
2022/12/28 03:02:51;;;;;;;0.40;0.40;;;4.00;99.90;;;;;;5076507;28;20245;-69
2022/12/28 03:08:49;;;;;;;0.40;0.40;;;4.00;99.90;;;;;;5075876;28;20185;-68
2022/12/28 03:11:19;;;;;;;0.50;0.50;;;3.90;99.90;;;;;;5075887;28;20237;-69
2022/12/28 03:13:58;;;;;;;0.40;0.40;;;3.80;99.90;;;;;;5075912;28;20173;-69
2022/12/28 03:16:27;;;;;;;0.50;0.50;;;3.70;99.90;;;;;;5076258;28;20680;-70
2022/12/28 03:32:50;;;;;;;0.30;0.30;;;3.60;99.90;;;;;;5075575;28;20630;-70
2022/12/28 03:35:19;;;;;;;0.40;0.40;;;3.60;99.90;;;;;;5075483;28;20182;-69
2022/12/28 03:37:57;;;;;;;2.95;1.20;;;3.70;99.90;;;;;;5075685;28;20618;-69
2022/12/28 03:40:48;;;;;;;0.75;0.75;;;3.70;99.90;;;;;;5075530;28;20189;-70
2022/12/28 03:43:42;;;;;;;0.40;0.40;;;3.80;99.90;;;;;;5075685;28;20166;-71
2022/12/28 03:46:20;;;;;;;0.30;0.30;;;3.70;99.90;;;;;;5075570;28;20256;-69
2022/12/28 03:48:47;;;;;;;0.30;0.30;;;3.80;99.90;;;;;;5075793;28;20169;-69
2022/12/28 03:51:15;;;;;;;0.40;0.40;;;3.80;99.90;;;;;;5075174;28;20185;-70
2022/12/28 03:53:43;;;;;;;0.40;0.40;;;3.80;99.90;;;;;;5075867;28;20219;-70
2022/12/28 03:56:18;;;;;;;0.60;0.60;;;3.80;99.90;;;;;;5075026;28;20170;-70
2022/12/28 03:58:44;;;;;;;2.78;0.60;;;3.80;99.90;;;;;;5075419;28;20173;-70
2022/12/28 04:01:10;;;;;;;0.77;0.77;;;3.90;99.90;;;;;;5075309;28;20186;-69
2022/12/28 04:03:35;;;;;;;0.83;0.83;;;3.90;99.90;;;;;;5075455;28;20181;-70
2022/12/28 04:06:02;;;;;;;0.60;0.60;;;3.90;99.90;;;;;;5075422;28;20518;-70
2022/12/28 04:08:28;;;;;;;0.40;0.40;;;4.00;99.90;;;;;;5074297;28;20184;-70
2022/12/28 04:10:54;;;;;;;0.40;0.40;;;4.00;99.90;;;;;;5074948;28;20199;-69
2022/12/28 04:13:19;;;;;;;0.50;0.50;;;4.00;99.90;;;;;;5075024;28;20175;-70
2022/12/28 04:15:58;;;;;;;0.40;0.40;;;4.00;99.90;;;;;;5074812;28;20567;-70
2022/12/28 04:18:24;;;;;;;0.40;0.40;;;4.10;99.90;;;;;;5075228;28;20208;-71
2022/12/28 04:20:50;;;;;;;0.60;0.60;;;4.20;99.90;;;;;;5074864;28;20194;-70
2022/12/28 04:23:15;;;;;;;0.50;0.50;;;4.10;99.90;;;;;;5074849;28;20399;-70
2022/12/28 04:25:41;;;;;;;0.40;0.40;;;4.00;99.90;;;;;;5074585;28;20404;-68
2022/12/28 04:28:07;;;;;;;0.93;0.93;;;4.10;99.90;;;;;;5074725;28;20626;-70
2022/12/28 04:30:32;;;;;;;0.40;0.40;;;4.00;99.90;;;;;;5074638;28;20193;-69
2022/12/28 04:32:58;;;;;;;0.40;0.40;;;4.00;99.90;;;;;;5074760;28;20256;-70
2022/12/28 04:35:23;;;;;;;0.60;0.60;;;4.00;99.90;;;;;;5074196;28;20615;-70
2022/12/28 04:37:49;;;;;;;0.40;0.40;;;4.10;99.90;;;;;;5074153;28;20215;-70
2022/12/28 04:40:15;;;;;;;0.50;0.50;;;4.10;99.90;;;;;;5074349;28;20186;-69
2022/12/28 04:42:40;;;;;;;0.37;0.37;;;4.00;99.90;;;;;;5073073;28;20623;-69
2022/12/28 04:45:06;;;;;;;0.50;0.50;;;4.00;99.90;;;;;;5074016;28;20169;-70
2022/12/28 04:47:32;;;;;;;0.40;0.40;;;3.90;99.90;;;;;;5074509;28;20199;-70
2022/12/28 04:49:58;;;;;;;0.40;0.40;;;3.90;99.90;;;;;;5074576;28;20189;-69
2022/12/28 04:52:23;;;;;;;0.30;0.30;;;3.80;99.90;;;;;;5074148;28;21010;-70
2022/12/28 04:54:49;;;;;;;0.40;0.40;;;3.80;99.90;;;;;;5074040;28;20684;-69
2022/12/28 04:57:15;;;;;;;2.40;1.03;;;3.80;99.90;;;;;;5074194;28;20650;-70
2022/12/28 04:59:40;;;;;;;1.50;1.50;;;3.80;99.90;;;;;;5074480;28;20173;-69
2022/12/28 05:02:06;;;;;;;0.50;0.50;;;3.80;99.90;;;;;;5074106;28;20172;-70
2022/12/28 05:04:32;;;;;;;0.40;0.40;;;3.90;99.90;;;;;;5072361;28;20175;-70
2022/12/28 05:06:57;;;;;;;0.97;0.97;;;3.90;99.90;;;;;;5073893;28;20173;-70
2022/12/28 05:09:23;;;;;;;0.40;0.40;;;3.80;99.90;;;;;;5073975;28;20178;-69
2022/12/28 05:11:50;;;;;;;0.40;0.40;;;3.80;99.90;;;;;;5073186;28;20548;-70
2022/12/28 05:14:15;;;;;;;1.60;0.75;;;3.90;99.90;;;;;;5073821;28;20206;-70
2022/12/28 05:16:41;;;;;;;0.77;0.77;;;3.90;99.90;;;;;;5074183;28;20643;-70
2022/12/28 05:19:07;;;;;;;0.80;0.80;;;4.00;99.90;;;;;;5074038;28;20215;-70
2022/12/28 05:21:32;;;;;;;0.50;0.50;;;4.00;99.90;;;;;;5073637;28;20189;-70
2022/12/28 05:23:58;;;;;;;0.50;0.50;;;4.10;99.90;;;;;;5073919;28;20407;-70
2022/12/28 05:26:27;;;;;;;0.40;0.40;;;4.10;99.90;;;;;;5073397;28;20165;-68
2022/12/28 05:28:54;;;;;;;0.60;0.60;;;4.20;99.90;;;;;;5073808;28;20702;-70
2022/12/28 05:31:21;;;;;;;0.30;0.30;;;4.30;99.90;;;;;;5074051;28;20576;-70
2022/12/28 05:33:48;;;;;;;0.30;0.30;;;4.40;99.90;;;;;;5074222;28;20244;-70
2022/12/28 05:36:16;;;;;;;0.47;0.47;;;4.40;99.90;;;;;;5073210;28;20220;-69
2022/12/28 05:38:42;;;;;;;0.50;0.50;;;4.40;99.90;;;;;;5073770;28;20517;-69
2022/12/28 05:41:15;;;;;;;0.40;0.40;;;4.40;99.90;;;;;;5073772;28;20198;-70
2022/12/28 05:43:41;;;;;;;0.40;0.40;;;4.40;99.90;;;;;;5072628;28;20714;-70
2022/12/28 05:46:10;;;;;;;0.50;0.50;;;4.40;99.90;;;;;;5073877;28;20181;-70
2022/12/28 05:48:38;;;;;;;0.30;0.30;;;4.40;99.90;;;;;;5073644;28;20174;-70
2022/12/28 05:51:08;;;;;;;1.70;0.80;;;4.50;99.90;;;;;;5073461;28;20189;-70
2022/12/28 05:53:34;;;;;;;0.40;0.40;;;4.40;99.90;;;;;;5073687;28;20173;-70
2022/12/28 05:56:05;;;;;;;2.20;2.10;;;4.40;99.90;;;;;;5073162;28;20177;-68
2022/12/28 05:58:31;;;;;;;0.32;0.32;;;4.50;99.90;;;;;;5073799;28;20448;-69
2022/12/28 06:01:07;;;;;;;0.30;0.30;;;4.50;99.90;;;;;;5073776;28;20232;-70
2022/12/28 06:03:33;;;;;;;0.30;0.30;;;4.50;99.90;;;;;;5073401;28;20169;-70
2022/12/28 06:06:18;;;;;;;0.40;0.40;;;4.50;99.90;;;;;;5073378;28;20170;-70
2022/12/28 06:08:45;;;;;;;1.40;1.40;;;4.50;99.90;;;;;;5073637;28;20517;-70
2022/12/28 06:11:16;;;;;;;0.40;0.40;;;4.50;99.90;;;;;;5073175;28;20196;-70
2022/12/28 06:13:42;;;;;;;0.40;0.40;;;4.50;99.90;;;;;;5073241;28;20232;-69
2022/12/28 06:16:29;;;;;;;0.43;0.43;;;4.50;99.90;;;;;;5073169;28;20207;-69
2022/12/28 06:18:55;;;;;;;0.38;0.38;;;4.50;99.90;;;;;;5073398;28;20424;-69
2022/12/28 06:21:23;;;;;;;0.50;0.50;;;4.50;99.90;;;;;;5073017;28;20196;-70
2022/12/28 06:23:49;;;;;;;0.77;0.77;;;4.50;99.90;;;;;;5073129;28;20396;-70
2022/12/28 06:26:18;;;;;;;0.38;0.38;;;4.40;99.90;;;;;;5076728;28;20234;-69
2022/12/28 06:28:45;;;;;;;0.38;0.38;;;4.40;99.90;;;;;;5076966;28;20556;-70
2022/12/28 06:31:34;;;;;;;0.40;0.40;;;4.40;99.90;;;;;;5075832;28;20193;-70
2022/12/28 06:34:01;;;;;;;0.30;0.30;;;4.40;99.90;;;;;;5077388;28;20173;-70
2022/12/28 06:36:32;;;;;;;0.43;0.43;;;4.40;99.90;;;;;;5076634;28;20205;-69
2022/12/28 06:38:59;;;;;;;0.40;0.40;;;4.30;99.90;;;;;;5076776;28;20169;-70
2022/12/28 06:41:27;;;;;;;0.68;0.68;;;4.40;99.90;;;;;;5076836;28;20220;-70
2022/12/28 06:43:53;;;;;;;0.68;0.68;;;4.30;99.90;;;;;;5077028;28;20169;-69
2022/12/28 06:46:21;;;;;;;0.30;0.30;;;4.30;99.90;;;;;;5076763;28;20177;-70
2022/12/28 06:48:47;;;;;;;0.40;0.40;;;4.20;99.90;;;;;;5075735;28;20177;-70
2022/12/28 06:51:17;;;;;;;0.30;0.30;;;4.50;99.90;;;;;;5076405;28;20196;-69
2022/12/28 06:53:43;;;;;;;0.40;0.40;;;4.00;99.90;;;;;;5076905;28;20166;-70
2022/12/28 06:56:12;;;;;;;0.40;0.40;;;4.00;99.90;;;;;;5076133;28;20535;-69
2022/12/28 06:58:38;;;;;;;0.30;0.30;;;4.00;99.90;;;;;;5076701;28;20658;-70
2022/12/28 07:01:18;;;;;;;0.32;0.32;;;4.00;99.90;;;;;;5076200;28;20193;-70
2022/12/28 07:03:46;;;;;;;0.30;0.30;;;3.90;99.90;;;;;;5076511;28;20246;-69
2022/12/28 07:06:14;;;;;;;0.38;0.38;;;3.90;99.90;;;;;;5075960;28;20211;-70
2022/12/28 07:08:40;;;;;;;0.30;0.30;;;3.80;99.90;;;;;;5076411;28;20169;-68
2022/12/28 07:11:12;;;;;;;0.85;0.70;;;3.80;99.90;;;;;;5075905;28;20218;-69
2022/12/28 07:13:39;;;;;;;0.30;0.30;;;3.90;99.90;;;;;;5074662;28;20276;-69
2022/12/28 07:16:10;;;;;;;0.40;0.40;;;3.90;99.90;;;;;;5075772;28;20185;-70
2022/12/28 07:18:37;;;;;;;0.50;0.50;;;3.90;99.90;;;;;;5076017;28;20276;-68
2022/12/28 07:21:14;;;;;;;0.55;0.55;;;3.90;99.90;;;;;;5076102;28;20234;-69
2022/12/28 07:23:40;;;;;;;1.33;1.02;;;3.80;99.90;;;;;;5076405;28;20193;-70
2022/12/28 07:26:12;;;;;;;1.60;0.83;;;3.90;99.90;;;;;;5075619;28;20689;-70
2022/12/28 07:28:40;;;;;;;1.58;1.48;;;3.90;99.90;;;;;;5075991;28;20177;-68
2022/12/28 07:31:13;;;;;;;0.73;0.73;;;3.90;99.90;;;;;;5075723;28;20649;-70
2022/12/28 07:33:39;;;;;;;0.30;0.30;;;3.80;99.90;;;;;;5075891;28;20161;-70
2022/12/28 07:36:07;;;;;;;0.40;0.40;;;3.90;99.90;;;;;;5075181;28;20197;-68
2022/12/28 07:38:33;;;;;;;0.38;0.38;;;3.90;99.90;;;;;;5075876;28;20213;-69
2022/12/28 07:41:04;;;;;;;0.40;0.40;;;4.00;99.90;;;;;;5075612;28;20208;-69
2022/12/28 07:43:30;;;;;;;0.40;0.40;;;4.10;99.90;;;;;;5075410;28;20395;-70
2022/12/28 07:46:06;;;;;;;0.40;0.40;;;4.20;99.90;;;;;;5075498;28;20609;-68
2022/12/28 07:48:34;;;;;;;0.40;0.40;;;4.20;99.90;;;;;;5075649;28;20165;-70
2022/12/28 07:51:18;;;;;;;3.25;2.63;;;4.20;99.90;;;;;;5075245;28;20266;-70
2022/12/28 07:53:45;;;;;;;1.67;1.27;;;4.20;99.90;;;;;;5075227;28;20579;-70
2022/12/28 07:56:11;;;;;;;0.40;0.40;;;4.20;99.90;;;;;;5075028;28;20176;-70
2022/12/28 07:58:37;;;;;;;0.50;0.50;;;4.30;99.90;;;;;;5075316;28;20208;-69
2022/12/28 08:01:12;;;;;;;0.55;0.52;;;4.30;99.90;;;;;;5075431;28;20193;-69
2022/12/28 08:03:38;;;;;;;0.35;0.35;;;4.30;99.90;;;;;;5075644;28;20250;-69
2022/12/28 08:06:07;;;;;;;0.80;0.52;;;4.20;99.90;;;;;;5074761;28;20651;-70
2022/12/28 08:08:41;;;;;;;0.70;0.70;;;4.20;99.90;;;;;;5075289;28;20165;-69
2022/12/28 08:11:10;;;;;;;0.65;0.65;;;4.30;99.90;;;;;;5074739;28;20197;-70
2022/12/28 08:13:37;;;;;;;1.00;1.00;;;4.50;99.90;;;;;;5075084;28;20173;-70
2022/12/28 08:16:04;;;;;;;0.52;0.52;;;4.60;99.90;;;;;;5074684;28;20550;-69
2022/12/28 08:18:30;;;;;;;0.60;0.60;;;4.70;99.90;;;;;;5075326;28;20196;-70
2022/12/28 08:21:01;;;;;;;0.40;0.40;;;4.70;99.90;;;;;;5074739;28;20557;-69
2022/12/28 08:23:27;;;;;;;0.65;0.65;;;5.00;99.90;;;;;;5074907;28;20197;-69
2022/12/28 08:25:53;;;;;;;2.25;2.05;;;5.20;99.90;;;;;;5074820;28;20513;-70
2022/12/28 08:28:19;;;;;;;0.50;0.50;;;5.30;99.90;;;;;;5075123;28;20169;-69
2022/12/28 08:30:44;;;;;;;0.70;0.70;;;5.40;99.90;;;;;;5073436;28;20201;-70
2022/12/28 08:33:10;;;;;;;0.80;0.70;;;5.60;99.90;;;;;;5074379;28;20176;-70
2022/12/28 08:35:35;;;;;;;0.40;0.40;;;5.90;99.90;;;;;;5074406;28;20193;-69
2022/12/28 08:38:01;;;;;;;0.40;0.40;;;6.10;99.90;;;;;;5074424;28;20219;-70
2022/12/28 08:40:28;;;;;;;0.77;0.57;;;6.30;99.90;;;;;;5074192;28;20225;-70
2022/12/28 08:43:00;;;;;;;3.35;1.02;;;6.60;99.90;;;;;;5074661;28;20162;-70
2022/12/28 08:45:26;;;;;;;0.85;0.85;;;6.80;99.60;;;;;;5074253;28;20216;-70
2022/12/28 08:47:52;;;;;;;0.83;0.83;;;6.90;98.80;;;;;;5073465;28;20637;-70
2022/12/28 08:50:18;;;;;;;1.87;1.77;;;6.80;98.30;;;;;;5074127;28;20437;-70
2022/12/28 08:52:44;;;;;;;0.80;0.80;;;6.70;98.20;;;;;;5074431;28;20487;-70
2022/12/28 08:55:10;;;;;;;1.00;1.00;;;6.60;98.00;;;;;;5073936;28;20424;-71
2022/12/28 08:57:35;;;;;;;5.10;2.30;;;6.60;97.80;;;;;;5073837;28;20445;-69
2022/12/28 09:00:02;;;;;;;3.17;1.97;;;6.60;98.20;;;;;;5074094;28;20183;-69
2022/12/28 09:02:28;;;;;;;1.45;1.38;;;6.60;97.90;;;;;;5073857;28;20175;-70
2022/12/28 09:04:53;;;;;;;4.13;3.03;;;6.60;97.80;;;;;;5073860;28;20633;-71
2022/12/28 09:07:19;;;;;;;1.20;1.20;;;6.50;97.70;;;;;;5073863;28;20166;-69
2022/12/28 09:09:44;;;;;;;2.93;2.67;;;6.60;98.00;;;;;;5073814;28;20604;-69
2022/12/28 09:12:10;;;;;;;4.90;2.93;;;6.70;98.20;;;;;;5074210;28;20180;-68
2022/12/28 09:14:36;;;;;;;2.47;2.00;;;6.80;98.20;;;;;;5073990;28;20533;-71
2022/12/28 09:17:01;;;;;;;2.00;1.90;;;6.90;98.20;;;;;;5073709;28;20204;-69
2022/12/28 09:19:27;;;;;;;3.40;3.30;;;7.10;98.40;;;;;;5073790;28;20165;-70
2022/12/28 09:21:54;;;;;;;4.97;4.23;;;7.40;98.20;;;;;;5073923;28;20185;-71
2022/12/28 09:24:21;;;;;;;4.45;4.15;;;7.70;97.70;;;;;;5073831;28;20552;-70
2022/12/28 09:26:47;;;;;;;3.00;2.80;;;8.00;97.40;;;;;;5073570;28;20585;-69
2022/12/28 09:29:13;;;;;;;4.78;2.50;;;8.00;96.50;;;;;;5072936;28;20619;-71
2022/12/28 09:31:40;;;;;;;2.72;2.35;;;8.10;96.20;;;;;;5073578;28;20702;-69
2022/12/28 09:34:11;;;;;;;2.65;2.42;;;8.10;96.20;;;;;;5073597;28;20157;-70
2022/12/28 09:36:42;;;;;;;5.15;4.68;;;8.00;95.90;;;;;;5073291;28;20230;-70
2022/12/28 09:39:12;;;;;;;2.45;2.28;;;7.90;96.00;;;;;;5072641;28;20173;-71
2022/12/28 09:41:55;;;;;;;4.82;4.53;;;7.80;96.30;;;;;;5073315;28;20188;-71
2022/12/28 09:44:45;;;;;;;2.45;2.25;;;7.60;96.50;;;;;;5073775;28;20216;-70
2022/12/28 09:47:28;;;;;;;6.63;3.35;;;7.60;97.00;;;;;;5073763;28;20173;-69
2022/12/28 09:50:24;;;;;;;2.08;1.98;;;7.60;97.00;;;;;;5073817;28;20161;-70
2022/12/28 09:53:06;;;;;;;3.60;2.10;;;7.60;96.90;;;;;;5073549;28;20230;-70
2022/12/28 09:55:37;;;;;;;1.63;1.52;;;7.60;97.10;;;;;;5072303;28;20661;-70
2022/12/28 09:58:09;;;;;;;7.85;6.35;;;7.60;97.40;;;;;;5073803;28;20221;-70
2022/12/28 10:00:44;;;;;;;5.13;4.72;;;7.70;97.60;;;;;;5078015;28;20212;-71
2022/12/28 10:03:23;;;;;;;5.65;3.85;;;7.70;97.70;;;;;;5077330;28;20162;-70
2022/12/28 10:05:50;;;;;;;7.57;3.22;;;7.90;98.20;;;;;;5077378;28;20186;-70
2022/12/28 10:08:20;;;;;;;7.63;6.90;;;8.10;98.00;;;;;;5077735;28;20515;-70
2022/12/28 10:10:46;;;;;;;6.25;4.85;;;8.40;97.90;;;;;;5077377;28;20196;-71
2022/12/28 10:13:25;;;;;;;3.30;3.10;;;8.70;97.40;;;;;;5075836;28;20532;-71
2022/12/28 10:15:51;;;;;;;3.25;3.00;;;8.90;97.00;;;;;;5076866;28;20264;-71
2022/12/28 10:18:22;;;;;;;1.58;1.48;;;9.10;96.70;;;;;;5077326;28;20248;-70
2022/12/28 10:20:48;;;;;;;4.25;3.80;;;9.20;95.90;;;;;;5077525;28;20187;-71
2022/12/28 10:23:23;;;;;;;3.37;2.87;;;9.60;96.00;;;;;;5077469;28;20184;-71
2022/12/28 10:25:50;;;;;;;6.13;5.63;;;10.20;95.80;;;;;;5076987;28;20395;-71
2022/12/28 10:28:19;;;;;;;12.53;6.07;;;11.40;94.30;;;;;;5076775;28;20418;-69
2022/12/28 10:31:00;;;;;;;4.47;4.17;;;12.20;92.40;;;;;;5076599;28;20919;-70
2022/12/28 10:33:26;;;;;;;9.93;8.40;;;13.00;91.30;;;;;;5076843;28;20849;-71
2022/12/28 10:35:54;;;;;;;6.40;5.80;;;13.90;90.00;;;;;;5076306;28;20411;-71
2022/12/28 10:38:30;;;;;;;4.67;2.50;;;14.40;87.20;;;;;;5076656;28;20178;-70
2022/12/28 10:41:00;;;;;;;2.30;1.80;;;14.70;84.40;;;;;;5076652;28;20434;-71
2022/12/28 10:43:31;;;;;;;1.90;0.50;;;14.60;81.80;;;;;;5076904;28;20756;-70
2022/12/28 10:45:59;;;;;;;0.80;0.80;;;14.30;80.30;;;;;;5076990;28;20486;-71
2022/12/28 10:48:29;;;;;;;1.23;1.07;;;13.60;80.10;;;;;;5077070;28;20743;-70
2022/12/28 10:51:12;;;;;;;0.40;0.40;;;13.40;81.50;;;;;;5076705;28;20522;-71
2022/12/28 10:53:38;;;;;;;1.27;1.27;;;13.10;81.20;;;;;;5076722;28;20428;-70
2022/12/28 10:56:16;;;;;;;0.53;0.53;;;12.90;82.50;;;;;;5076662;28;20587;-70
2022/12/28 10:58:51;;;;;;;0.77;0.40;;;12.50;81.40;;;;;;5076310;28;20221;-70
2022/12/28 11:01:18;;;;;;;1.97;1.87;;;11.90;81.70;;;;;;5075056;28;20443;-71
2022/12/28 11:03:56;;;;;;;1.43;1.33;;;11.90;84.30;;;;;;5076414;28;20408;-71
2022/12/28 11:06:25;;;;;;;0.30;0.30;;;11.80;83.30;;;;;;5076435;28;20399;-71
2022/12/28 11:09:14;;;;;;;0.50;0.50;;;11.70;84.00;;;;;;5075989;28;20773;-70
2022/12/28 11:11:41;;;;;;;0.30;0.30;;;11.40;83.00;;;;;;5075662;28;20522;-69
2022/12/28 11:14:33;;;;;;;0.77;0.60;;;11.00;83.70;;;;;;5075976;28;20418;-71
2022/12/28 11:17:27;;;;;;;0.70;0.70;;;10.70;86.00;;;;;;5076033;28;20434;-70
2022/12/28 11:20:00;;;;;;;0.70;0.70;;;10.60;87.20;;;;;;5075657;28;20757;-70
2022/12/28 11:22:28;;;;;;;1.07;0.80;;;10.60;88.00;;;;;;5075805;28;20400;-71
2022/12/28 11:24:55;;;;;;;1.47;1.00;;;10.60;89.40;;;;;;5075783;28;20396;-70
2022/12/28 11:27:22;;;;;;;0.30;0.30;;;10.40;87.00;;;;;;5076222;28;20753;-71
2022/12/28 11:29:50;;;;;;;2.70;2.58;;;10.10;87.60;;;;;;5076187;28;20180;-70
2022/12/28 11:32:31;;;;;;;1.45;1.35;;;10.00;87.80;;;;;;5075784;28;20184;-70
2022/12/28 11:34:57;;;;;;;1.25;1.15;;;10.10;88.80;;;;;;5075780;28;20249;-70
2022/12/28 11:37:23;;;;;;;0.52;0.52;;;9.90;89.10;;;;;;5075758;28;20197;-69
2022/12/28 11:39:50;;;;;;;0.30;0.30;;;9.80;93.40;;;;;;5075877;28;20185;-69
2022/12/28 11:42:31;;;;;;;0.93;0.93;;;10.00;90.30;;;;;;5076416;28;20544;-69
2022/12/28 11:45:00;;;;;;;0.30;0.30;;;10.20;90.30;;;;;;5075592;28;20172;-69
2022/12/28 11:47:32;;;;;;;1.45;1.35;;;10.30;87.00;;;;;;5075483;28;20205;-69
2022/12/28 11:50:35;;;;;;;1.20;1.15;;;10.10;90.90;;;;;;5075646;28;20252;-70
2022/12/28 11:53:02;;;;;;;1.65;1.20;;;10.20;90.00;;;;;;5075863;28;20197;-70
2022/12/28 11:55:53;;;;;;;0.40;0.40;;;10.20;88.80;;;;;;5075302;28;20177;-70
2022/12/28 11:58:44;;;;;;;0.40;0.40;;;10.10;86.10;;;;;;5075441;28;20220;-70
2022/12/28 12:01:32;;;;;;;0.40;0.40;;;10.20;87.30;;;;;;5075665;28;20178;-70
2022/12/28 12:03:57;;;;;;;0.55;0.55;;;10.10;91.00;;;;;;5074624;28;20589;-70
2022/12/28 12:06:45;;;;;;;0.50;0.50;;;10.20;88.90;;;;;;5073545;28;20260;-70
2022/12/28 12:09:37;;;;;;;1.15;0.50;;;10.30;86.80;;;;;;5075483;28;20525;-70
2022/12/28 12:12:15;;;;;;;0.40;0.40;;;10.40;87.00;;;;;;5074588;28;20201;-69
2022/12/28 12:15:11;;;;;;;0.40;0.40;;;10.40;87.10;;;;;;5074618;28;20233;-70
2022/12/28 12:17:58;;;;;;;0.50;0.50;;;10.30;90.60;;;;;;5074880;28;20189;-70
2022/12/28 12:20:48;;;;;;;0.30;0.30;;;10.20;90.70;;;;;;5075010;28;20196;-70
2022/12/28 12:23:40;;;;;;;0.38;0.38;;;10.20;86.20;;;;;;5075024;28;20630;-70
2022/12/28 12:26:32;;;;;;;2.05;1.20;;;10.00;87.90;;;;;;5075040;28;20174;-68
2022/12/28 12:29:03;;;;;;;0.50;0.50;;;9.80;90.00;;;;;;5074612;28;20248;-70
2022/12/28 12:31:34;;;;;;;0.30;0.30;;;9.80;90.80;;;;;;5074359;28;20193;-69
2022/12/28 12:34:14;;;;;;;1.25;1.25;;;9.80;91.00;;;;;;5074776;28;20190;-69
2022/12/28 12:36:42;;;;;;;0.40;0.40;;;9.70;91.20;;;;;;5074469;28;20550;-69
2022/12/28 12:39:17;;;;;;;0.30;0.30;;;9.80;90.90;;;;;;5073116;28;20166;-70
2022/12/28 12:41:52;;;;;;;0.40;0.40;;;10.00;90.40;;;;;;5074535;28;20233;-70
2022/12/28 12:44:34;;;;;;;0.90;0.90;;;10.10;87.90;;;;;;5074410;28;20165;-68
2022/12/28 12:47:12;;;;;;;0.40;0.40;;;10.20;88.60;;;;;;5074404;28;20169;-70
2022/12/28 12:49:46;;;;;;;0.55;0.55;;;10.00;86.40;;;;;;5074211;28;20173;-69
2022/12/28 12:52:30;;;;;;;0.50;0.50;;;10.10;87.90;;;;;;5074408;28;20207;-70
2022/12/28 12:55:08;;;;;;;0.43;0.43;;;10.10;91.30;;;;;;5074106;28;20197;-70
2022/12/28 12:57:40;;;;;;;0.50;0.50;;;10.20;90.30;;;;;;5074044;28;20193;-70
2022/12/28 13:00:15;;;;;;;0.38;0.38;;;10.40;85.50;;;;;;5074150;28;20559;-69
2022/12/28 13:03:18;;;;;;;1.02;0.73;;;10.40;88.40;;;;;;5074509;28;20156;-70
2022/12/28 13:05:53;;;;;;;0.30;0.30;;;10.20;90.00;;;;;;5073528;28;20245;-69
2022/12/28 13:09:12;;;;;;;0.50;0.40;;;10.00;91.30;;;;;;5073775;28;20223;-68
2022/12/28 13:11:38;;;;;;;0.30;0.30;;;9.80;88.30;;;;;;5074125;28;20182;-70
2022/12/28 13:14:06;;;;;;;0.30;0.30;;;9.70;90.60;;;;;;5074642;28;20180;-69
2022/12/28 13:16:32;;;;;;;0.93;0.93;;;9.60;91.40;;;;;;5072490;28;20169;-70
2022/12/28 13:18:58;;;;;;;0.40;0.40;;;9.60;90.70;;;;;;5072340;28;20189;-68
2022/12/28 13:21:26;;;;;;;0.30;0.30;;;9.50;90.70;;;;;;5073927;28;20254;-70
2022/12/28 13:23:52;;;;;;;0.40;0.40;;;9.50;91.70;;;;;;5074010;28;20170;-70
2022/12/28 13:26:25;;;;;;;0.40;0.40;;;9.50;91.70;;;;;;5073994;28;20180;-69
2022/12/28 13:29:00;;;;;;;0.80;0.80;;;9.50;92.00;;;;;;5073643;28;20513;-70
2022/12/28 13:31:38;;;;;;;0.40;0.40;;;9.40;92.00;;;;;;5073783;28;20248;-69
2022/12/28 13:34:14;;;;;;;0.30;0.30;;;9.30;92.70;;;;;;5073252;28;20166;-69
2022/12/28 13:37:13;;;;;;;0.30;0.30;;;9.30;91.70;;;;;;5073509;28;20524;-69
2022/12/28 13:39:38;;;;;;;0.32;0.32;;;9.30;92.40;;;;;;5073538;28;20586;-70